createdAt,value
2022-08-21T03:08:56.229Z,19.67
2022-08-21T03:14:00.446Z,19.69
2022-08-21T03:19:04.583Z,19.71
2022-08-21T03:24:10.292Z,19.68
2022-08-21T03:29:13.687Z,19.71
2022-08-21T03:34:17.283Z,19.79
2022-08-21T03:39:22.086Z,19.81
2022-08-21T03:44:26.860Z,19.89
2022-08-21T03:49:30.689Z,19.94
2022-08-21T03:54:35.802Z,19.92
2022-08-21T03:59:40.276Z,20.01
2022-08-21T04:04:43.640Z,20.04
2022-08-21T04:09:48.753Z,19.93
2022-08-21T04:14:53.056Z,20.01
2022-08-21T04:19:57.715Z,20.14
2022-08-21T04:25:02.551Z,20.25
2022-08-21T04:30:07.382Z,20.32
2022-08-21T04:35:13.122Z,20.35
2022-08-21T04:40:19.905Z,20.40
2022-08-21T04:45:26.143Z,20.51
2022-08-21T04:50:37.362Z,20.36
2022-08-21T04:55:43.879Z,20.49
2022-08-21T05:00:48.275Z,20.64
2022-08-21T05:05:52.044Z,20.65
2022-08-21T05:11:00.498Z,20.82
2022-08-21T05:16:04.921Z,20.88
2022-08-21T05:21:08.417Z,20.79
2022-08-21T05:26:18.030Z,20.76
2022-08-21T05:31:22.020Z,20.87
2022-08-21T05:36:25.873Z,20.62
2022-08-21T05:41:30.610Z,20.70
2022-08-21T05:46:38.741Z,20.90
2022-08-21T05:51:43.553Z,20.91
2022-08-21T05:56:48.561Z,20.85
2022-08-21T06:01:53.910Z,20.84
2022-08-21T06:06:57.431Z,20.76
2022-08-21T06:12:05.937Z,20.84
2022-08-21T06:17:12.858Z,20.82
2022-08-21T06:22:16.274Z,20.46
2022-08-21T06:27:24.736Z,20.47
2022-08-21T06:32:30.065Z,19.64
2022-08-21T06:37:33.596Z,19.14
2022-08-21T06:42:38.324Z,19.26
2022-08-21T06:47:44.702Z,18.97
2022-08-21T06:52:48.358Z,19.00
2022-08-21T06:57:53.264Z,18.90
2022-08-21T07:02:56.956Z,19.21
2022-08-21T07:08:00.526Z,19.33
2022-08-21T07:13:05.471Z,19.36
2022-08-21T07:18:09.112Z,19.43
2022-08-21T07:23:26.978Z,19.87
2022-08-21T07:28:32.292Z,20.21
2022-08-21T07:33:37.297Z,20.52
2022-08-21T07:38:40.705Z,20.83
2022-08-21T07:43:46.335Z,21.05
2022-08-21T07:48:49.858Z,21.00
2022-08-21T07:53:57.777Z,21.49
2022-08-21T07:59:03.861Z,21.70
2022-08-21T08:04:07.748Z,21.80
2022-08-21T08:09:11.202Z,22.19
2022-08-21T08:14:16.694Z,22.67
2022-08-21T08:19:20.064Z,23.39
2022-08-21T08:24:23.497Z,24.04
2022-08-21T14:00:19.390Z,17.48
2022-08-21T14:05:27.978Z,17.59
2022-08-21T14:10:31.762Z,17.53
2022-08-21T14:15:37.672Z,17.66
2022-08-21T14:20:41.136Z,17.57
2022-08-21T14:25:47.028Z,17.47
2022-08-21T14:30:53.852Z,17.53
2022-08-21T14:35:57.823Z,17.62
2022-08-21T14:41:19.371Z,17.91
2022-08-21T14:46:28.516Z,17.83
2022-08-21T14:51:32.334Z,17.75
2022-08-21T14:56:37.184Z,17.29
2022-08-21T15:01:42.008Z,17.25
2022-08-21T15:06:45.618Z,17.41
2022-08-21T15:11:49.906Z,17.28
2022-08-21T15:16:54.994Z,17.31
2022-08-21T15:21:59.288Z,17.37
2022-08-21T15:27:05.685Z,17.44
2022-08-21T15:32:21.332Z,16.97
2022-08-21T15:37:26.790Z,17.11
2022-08-21T15:42:30.680Z,17.15
2022-08-21T15:47:38.541Z,16.92
2022-08-21T15:52:42.190Z,16.87
2022-08-21T15:57:56.860Z,16.64
2022-08-21T16:03:06.362Z,16.47
2022-08-21T16:08:11.178Z,16.40
2022-08-21T16:13:19.137Z,16.53
2022-08-21T16:18:26.726Z,16.53
2022-08-21T16:23:30.448Z,16.56
2022-08-21T16:28:36.892Z,16.50
2022-08-21T16:33:44.976Z,16.63
2022-08-21T16:38:48.690Z,16.41
2022-08-21T16:43:53.057Z,16.29
2022-08-21T16:48:58.016Z,16.28
2022-08-21T16:54:01.705Z,16.21
2022-08-21T16:59:06.266Z,15.93
2022-08-21T17:04:11.075Z,16.01
2022-08-21T17:09:14.660Z,16.02
2022-08-21T17:14:21.384Z,16.21
2022-08-21T17:19:26.158Z,15.91
2022-08-21T17:24:30.047Z,15.66
2022-08-21T17:29:37.129Z,15.70
2022-08-21T17:34:42.161Z,15.74
2022-08-21T17:39:47.637Z,15.82
2022-08-21T17:44:51.127Z,15.70
2022-08-21T17:49:56.090Z,15.68
2022-08-21T17:54:59.820Z,15.72
2022-08-21T18:00:06.224Z,15.74
2022-08-21T18:05:16.309Z,15.80
2022-08-21T18:10:20.380Z,15.74
2022-08-21T18:15:24.582Z,15.88
2022-08-21T18:20:30.449Z,15.81
2022-08-21T18:25:34.999Z,15.68
2022-08-21T18:30:41.361Z,15.69
2022-08-21T18:35:46.157Z,15.70
2022-08-21T18:40:55.788Z,15.69
2022-08-21T18:45:59.634Z,15.73
2022-08-21T18:51:04.544Z,15.65
2022-08-21T18:56:16.189Z,15.80
2022-08-21T19:01:19.760Z,15.87
2022-08-21T19:06:24.611Z,15.78
2022-08-21T19:11:29.874Z,15.74
2022-08-21T19:16:33.960Z,15.69
2022-08-21T19:21:40.354Z,15.55
2022-08-21T19:26:44.210Z,15.84
2022-08-21T19:31:47.791Z,15.60
2022-08-21T19:36:56.215Z,15.65
2022-08-21T19:42:00.680Z,15.83
2022-08-21T19:47:06.026Z,15.63
2022-08-21T19:52:13.968Z,15.48
2022-08-21T19:57:18.373Z,15.59
2022-08-21T20:02:21.779Z,15.47
2022-08-21T20:07:27.092Z,15.59
2022-08-21T20:12:31.496Z,15.54
2022-08-21T20:17:35.158Z,15.58
2022-08-21T20:22:41.771Z,15.49
2022-08-21T20:27:45.226Z,15.68
2022-08-21T20:32:51.283Z,15.69
2022-08-21T20:37:58.981Z,15.87
2022-08-21T20:43:03.777Z,15.85
2022-08-21T20:48:12.858Z,15.92
2022-08-21T20:53:25.200Z,15.96
2022-08-21T20:58:34.116Z,15.96
2022-08-21T21:03:44.151Z,15.98
2022-08-21T21:08:53.566Z,16.03
2022-08-21T21:14:03.506Z,16.19
2022-08-21T21:19:11.151Z,16.07
2022-08-21T21:24:21.773Z,16.20
2022-08-21T21:29:38.665Z,16.31
2022-08-21T21:34:46.710Z,16.43
2022-08-21T21:40:02.738Z,16.47
2022-08-21T21:45:18.233Z,16.50
2022-08-21T21:50:36.775Z,16.43
2022-08-21T21:56:01.626Z,16.58
2022-08-21T22:01:12.598Z,16.56
2022-08-21T22:06:25.570Z,16.55
2022-08-21T22:11:40.698Z,16.52
2022-08-21T22:16:46.318Z,16.58
2022-08-21T22:21:53.666Z,16.59
2022-08-21T22:27:03.044Z,16.62
2022-08-21T22:32:11.902Z,16.72
2022-08-21T22:37:15.294Z,16.78
2022-08-21T22:42:27.531Z,16.89
2022-08-21T22:47:36.670Z,16.98
2022-08-21T22:52:47.662Z,16.87
2022-08-21T22:58:05.457Z,16.98
2022-08-21T23:03:16.450Z,16.91
2022-08-21T23:08:27.697Z,16.93
2022-08-21T23:13:42.865Z,16.94
2022-08-21T23:18:58.942Z,16.91
2022-08-21T23:24:19.384Z,16.96
2022-08-21T23:29:34.877Z,16.94
2022-08-21T23:34:46.770Z,16.85
2022-08-21T23:40:04.156Z,16.84
2022-08-21T23:45:24.340Z,16.74
2022-08-21T23:50:44.903Z,16.76
2022-08-21T23:56:04.662Z,16.85
